createdAt,value
2022-07-31T00:00:07.726Z,21.51
2022-07-31T00:01:07.676Z,21.50
2022-07-31T00:02:07.744Z,21.48
2022-07-31T00:03:07.293Z,21.47
2022-07-31T00:04:08.499Z,21.46
2022-07-31T00:05:08.628Z,21.46
2022-07-31T00:06:08.017Z,21.45
2022-07-31T00:07:07.177Z,21.44
2022-07-31T00:08:07.502Z,21.44
2022-07-31T00:09:08.192Z,21.44
2022-07-31T00:10:08.019Z,21.44
2022-07-31T00:11:07.044Z,21.43
2022-07-31T00:12:07.064Z,21.44
2022-07-31T00:13:06.951Z,21.44
2022-07-31T00:14:07.461Z,21.43
2022-07-31T00:15:13.840Z,21.43
2022-07-31T00:16:09.730Z,21.43
2022-07-31T00:17:07.013Z,21.43
2022-07-31T00:18:07.497Z,21.43
2022-07-31T00:19:07.674Z,21.43
2022-07-31T00:20:06.981Z,21.43
2022-07-31T00:21:06.830Z,21.43
2022-07-31T00:22:07.621Z,21.43
2022-07-31T00:23:06.831Z,21.44
2022-07-31T00:24:07.295Z,21.44
2022-07-31T00:25:07.430Z,21.45
2022-07-31T00:26:07.404Z,21.46
2022-07-31T00:27:07.406Z,21.47
2022-07-31T00:28:06.745Z,21.48
2022-07-31T00:29:06.727Z,21.49
2022-07-31T00:30:06.716Z,21.50
2022-07-31T00:31:08.625Z,21.52
2022-07-31T00:32:06.715Z,21.53
2022-07-31T00:33:06.689Z,21.53
2022-07-31T00:34:06.676Z,21.54
2022-07-31T00:35:07.327Z,21.56
2022-07-31T00:36:07.309Z,21.57
2022-07-31T00:37:07.543Z,21.57
2022-07-31T00:38:26.325Z,21.59
2022-07-31T00:39:08.299Z,21.60
2022-07-31T00:40:06.619Z,21.61
2022-07-31T00:41:06.603Z,21.62
2022-07-31T00:42:07.252Z,21.63
2022-07-31T00:43:06.598Z,21.64
2022-07-31T00:44:06.596Z,21.64
2022-07-31T00:45:07.529Z,21.64
2022-07-31T00:46:06.694Z,21.65
2022-07-31T00:47:07.553Z,21.65
2022-07-31T00:48:07.195Z,21.65
2022-07-31T00:49:07.261Z,21.66
2022-07-31T00:50:06.553Z,21.66
2022-07-31T00:51:07.143Z,21.67
2022-07-31T00:52:06.505Z,21.67
2022-07-31T00:53:08.882Z,21.67
2022-07-31T00:54:08.410Z,21.67
2022-07-31T00:55:06.418Z,21.67
2022-07-31T00:56:07.085Z,21.68
2022-07-31T00:57:06.899Z,21.67
2022-07-31T00:58:07.333Z,21.67
2022-07-31T00:59:07.059Z,21.66
2022-07-31T01:00:07.062Z,21.66
2022-07-31T01:01:08.391Z,21.67
2022-07-31T01:02:07.014Z,21.66
2022-07-31T01:03:07.052Z,21.66
2022-07-31T01:04:06.545Z,21.66
2022-07-31T01:05:08.306Z,21.66
2022-07-31T01:06:06.985Z,21.66
2022-07-31T01:07:07.257Z,21.67
2022-07-31T01:08:06.474Z,21.67
2022-07-31T01:09:06.285Z,21.68
2022-07-31T01:10:06.947Z,21.68
2022-07-31T01:11:06.923Z,21.68
2022-07-31T01:12:06.259Z,21.67
2022-07-31T01:13:06.900Z,21.67
2022-07-31T01:14:06.262Z,21.67
2022-07-31T01:15:06.899Z,21.67
2022-07-31T01:16:06.210Z,21.69
2022-07-31T01:17:07.387Z,21.68
2022-07-31T01:18:06.177Z,21.68
2022-07-31T01:19:06.167Z,21.68
2022-07-31T01:20:08.643Z,21.69
2022-07-31T01:21:07.112Z,21.69
2022-07-31T01:22:07.088Z,21.69
2022-07-31T01:23:07.796Z,21.70
2022-07-31T01:24:07.575Z,21.70
2022-07-31T01:25:08.574Z,21.69
2022-07-31T01:26:08.644Z,21.70
2022-07-31T01:27:07.013Z,21.71
2022-07-31T01:28:08.518Z,21.71
2022-07-31T01:29:07.043Z,21.71
2022-07-31T01:30:06.732Z,21.70
2022-07-31T01:31:27.131Z,21.70
2022-07-31T01:32:08.519Z,21.70
2022-07-31T01:33:06.945Z,21.70
2022-07-31T01:34:08.490Z,21.70
2022-07-31T01:35:08.417Z,21.71
2022-07-31T01:36:08.464Z,21.70
2022-07-31T01:37:07.127Z,21.71
2022-07-31T01:38:06.046Z,21.71
2022-07-31T01:39:08.429Z,21.71
2022-07-31T01:40:08.450Z,21.71
2022-07-31T01:41:08.358Z,21.70
2022-07-31T01:42:08.398Z,21.71
2022-07-31T01:43:08.359Z,21.70
2022-07-31T01:44:13.866Z,21.70
2022-07-31T01:45:07.557Z,21.70
2022-07-31T01:46:08.306Z,21.69
2022-07-31T01:47:06.885Z,21.69
2022-07-31T01:48:06.813Z,21.68
2022-07-31T01:49:08.299Z,21.68
2022-07-31T01:50:06.812Z,21.68
2022-07-31T01:51:08.271Z,21.67
2022-07-31T01:52:07.022Z,21.66
2022-07-31T01:53:06.729Z,21.64
2022-07-31T01:54:06.740Z,21.63
2022-07-31T01:55:08.235Z,21.63
2022-07-31T01:56:06.766Z,21.62
2022-07-31T01:57:07.244Z,21.60
2022-07-31T01:58:08.215Z,21.58
2022-07-31T01:59:12.321Z,21.58
2022-07-31T02:00:06.745Z,21.56
2022-07-31T02:01:07.445Z,21.55
2022-07-31T02:02:06.665Z,21.54
2022-07-31T02:03:09.797Z,21.53
2022-07-31T02:04:08.149Z,21.52
2022-07-31T02:05:06.336Z,21.50
2022-07-31T02:06:08.157Z,21.49
2022-07-31T02:07:06.587Z,21.48
2022-07-31T02:08:08.063Z,21.46
2022-07-31T02:09:08.054Z,21.44
2022-07-31T02:10:06.554Z,21.42
2022-07-31T02:11:08.552Z,21.41
2022-07-31T02:12:09.329Z,21.40
2022-07-31T02:13:08.049Z,21.38
2022-07-31T02:14:06.540Z,21.36
2022-07-31T02:15:08.008Z,21.36
2022-07-31T02:16:06.229Z,21.35
2022-07-31T02:17:06.508Z,21.34
2022-07-31T02:18:08.033Z,21.34
2022-07-31T02:19:06.195Z,21.34
2022-07-31T02:20:06.461Z,21.32
2022-07-31T02:21:06.168Z,21.32
2022-07-31T02:22:07.915Z,21.31
2022-07-31T02:23:07.907Z,21.30
2022-07-31T02:24:07.993Z,21.29
2022-07-31T02:25:07.875Z,21.29
2022-07-31T02:26:06.097Z,21.27
2022-07-31T02:27:06.353Z,21.25
2022-07-31T02:28:07.341Z,21.23
2022-07-31T02:29:06.272Z,21.22
2022-07-31T02:30:06.405Z,21.20
2022-07-31T02:31:07.831Z,21.18
2022-07-31T02:32:06.191Z,21.16
2022-07-31T02:33:06.027Z,21.14
2022-07-31T02:34:06.037Z,21.13
2022-07-31T02:35:05.995Z,21.10
2022-07-31T02:36:06.000Z,21.08
2022-07-31T02:37:05.373Z,21.05
2022-07-31T02:38:06.232Z,21.03
2022-07-31T02:39:08.719Z,21.00
2022-07-31T02:40:05.950Z,20.97
2022-07-31T02:41:05.429Z,20.94
2022-07-31T02:42:05.557Z,20.91
2022-07-31T02:43:05.321Z,20.90
2022-07-31T02:44:05.242Z,20.86
2022-07-31T02:45:07.659Z,20.83
2022-07-31T02:46:05.246Z,20.81
2022-07-31T02:47:05.885Z,20.78
2022-07-31T02:48:05.221Z,20.76
2022-07-31T02:49:05.232Z,20.73
2022-07-31T02:50:05.841Z,20.70
2022-07-31T02:51:05.847Z,20.68
2022-07-31T02:52:05.705Z,20.66
2022-07-31T02:53:05.121Z,20.64
2022-07-31T02:54:05.872Z,20.61
2022-07-31T02:55:05.109Z,20.59
2022-07-31T02:56:05.775Z,20.56
2022-07-31T02:57:05.761Z,20.54
2022-07-31T02:58:05.082Z,20.50
2022-07-31T02:59:05.063Z,20.48
2022-07-31T03:00:05.152Z,20.45
2022-07-31T03:01:05.143Z,20.43
2022-07-31T03:02:06.060Z,20.40
2022-07-31T03:03:05.701Z,20.37
2022-07-31T03:04:05.022Z,20.36
2022-07-31T03:05:05.677Z,20.34
2022-07-31T03:06:05.064Z,20.31
2022-07-31T03:07:05.661Z,20.28
2022-07-31T03:08:04.984Z,20.25
2022-07-31T03:09:05.019Z,20.23
2022-07-31T03:10:04.965Z,20.21
2022-07-31T03:11:06.924Z,20.20
2022-07-31T03:12:05.306Z,20.17
2022-07-31T03:13:05.580Z,20.14
2022-07-31T03:14:05.580Z,20.11
2022-07-31T03:15:04.881Z,20.10
2022-07-31T03:16:04.954Z,20.07
2022-07-31T03:17:05.566Z,20.04
2022-07-31T03:18:08.342Z,20.03
2022-07-31T03:19:07.289Z,20.01
2022-07-31T03:20:05.508Z,20.00
2022-07-31T03:21:04.881Z,19.99
2022-07-31T03:22:05.954Z,19.98
2022-07-31T03:23:05.508Z,19.98
2022-07-31T03:24:05.544Z,19.98
2022-07-31T03:25:05.465Z,19.98
2022-07-31T03:26:05.443Z,19.97
2022-07-31T03:27:04.831Z,19.99
2022-07-31T03:28:05.132Z,20.00
2022-07-31T03:29:42.836Z,20.01
2022-07-31T03:30:08.216Z,20.02
2022-07-31T03:31:04.704Z,20.05
2022-07-31T03:32:05.137Z,20.05
2022-07-31T03:33:05.373Z,20.07
2022-07-31T03:34:05.393Z,20.09
2022-07-31T03:35:05.347Z,20.11
2022-07-31T03:36:05.340Z,20.12
2022-07-31T03:37:05.315Z,20.14
2022-07-31T03:38:41.415Z,20.16
2022-07-31T03:39:08.098Z,20.16
2022-07-31T03:40:05.297Z,20.18
2022-07-31T03:41:05.289Z,20.19
2022-07-31T03:42:05.640Z,20.20
2022-07-31T03:43:05.255Z,20.20
2022-07-31T03:44:05.247Z,20.21
2022-07-31T03:45:04.551Z,20.21
2022-07-31T03:46:04.547Z,20.21
2022-07-31T03:47:05.221Z,20.21
2022-07-31T03:48:05.199Z,20.21
2022-07-31T03:49:05.250Z,20.21
2022-07-31T03:50:04.526Z,20.20
2022-07-31T03:51:04.532Z,20.20
2022-07-31T03:52:09.960Z,20.21
2022-07-31T03:53:06.460Z,20.20
2022-07-31T03:54:04.487Z,20.20
2022-07-31T03:55:04.473Z,20.21
2022-07-31T03:56:05.119Z,20.21
2022-07-31T03:57:04.432Z,20.20
2022-07-31T03:58:04.420Z,20.21
2022-07-31T03:59:04.526Z,20.21
2022-07-31T04:00:04.453Z,20.21
2022-07-31T04:01:05.075Z,20.22
2022-07-31T04:02:05.440Z,20.22
2022-07-31T04:03:04.394Z,20.23
2022-07-31T04:04:04.911Z,20.25
2022-07-31T04:05:09.624Z,20.27
2022-07-31T04:06:05.376Z,20.28
2022-07-31T04:07:04.347Z,20.32
2022-07-31T04:08:04.990Z,20.38
2022-07-31T04:09:15.346Z,20.42
2022-07-31T04:10:07.275Z,20.47
2022-07-31T04:11:04.306Z,20.52
2022-07-31T04:12:04.507Z,20.57
2022-07-31T04:13:04.954Z,20.62
2022-07-31T04:14:04.274Z,20.66
2022-07-31T04:15:04.918Z,20.71
2022-07-31T04:16:04.902Z,20.75
2022-07-31T04:17:04.897Z,20.76
2022-07-31T04:18:04.893Z,20.79
2022-07-31T04:19:04.230Z,20.81
2022-07-31T04:20:05.686Z,20.82
2022-07-31T04:21:04.617Z,20.83
2022-07-31T04:22:04.583Z,20.84
2022-07-31T04:23:04.819Z,20.84
2022-07-31T04:24:04.188Z,20.84
2022-07-31T04:25:04.815Z,20.84
2022-07-31T04:26:04.119Z,20.84
2022-07-31T04:27:05.434Z,20.85
2022-07-31T04:28:04.123Z,20.86
2022-07-31T04:29:04.760Z,20.86
2022-07-31T04:30:04.714Z,20.86
2022-07-31T04:31:04.063Z,20.88
2022-07-31T04:32:04.357Z,20.89
2022-07-31T04:33:04.097Z,20.90
2022-07-31T04:34:04.069Z,20.90
2022-07-31T04:35:04.012Z,20.92
2022-07-31T04:36:03.998Z,20.93
2022-07-31T04:37:04.012Z,20.95
2022-07-31T04:38:03.994Z,20.97
2022-07-31T04:39:04.642Z,20.99
2022-07-31T04:40:04.050Z,20.99
2022-07-31T04:41:04.616Z,21.00
2022-07-31T04:42:04.243Z,21.01
2022-07-31T04:43:04.657Z,21.01
2022-07-31T04:44:03.960Z,21.03
2022-07-31T04:45:03.905Z,21.07
2022-07-31T04:46:03.950Z,21.13
2022-07-31T04:47:05.827Z,21.19
2022-07-31T04:48:03.880Z,21.22
2022-07-31T04:49:04.601Z,21.24
2022-07-31T04:50:04.527Z,21.30
2022-07-31T04:51:04.542Z,21.38
2022-07-31T04:52:04.053Z,21.44
2022-07-31T04:53:03.807Z,21.45
2022-07-31T04:54:03.810Z,21.45
2022-07-31T04:55:03.884Z,21.47
2022-07-31T04:56:04.488Z,21.51
2022-07-31T04:57:04.448Z,21.55
2022-07-31T04:58:04.447Z,21.66
2022-07-31T04:59:03.755Z,21.74
2022-07-31T05:00:03.758Z,21.80
2022-07-31T05:01:05.207Z,21.77
2022-07-31T05:02:04.610Z,21.72
2022-07-31T05:03:03.706Z,21.67
2022-07-31T05:04:04.441Z,21.64
2022-07-31T05:05:03.692Z,21.61
2022-07-31T05:06:04.420Z,21.58
2022-07-31T05:07:04.343Z,21.57
2022-07-31T05:08:03.640Z,21.55
2022-07-31T05:09:08.383Z,21.54
2022-07-31T05:10:04.635Z,21.53
2022-07-31T05:11:03.621Z,21.52
2022-07-31T05:12:04.669Z,21.52
2022-07-31T05:13:04.283Z,21.52
2022-07-31T05:14:04.263Z,21.53
2022-07-31T05:15:04.250Z,21.54
2022-07-31T05:16:03.563Z,21.55
2022-07-31T05:17:03.557Z,21.57
2022-07-31T05:18:04.225Z,21.60
2022-07-31T05:19:04.216Z,21.64
2022-07-31T05:20:04.211Z,21.68
2022-07-31T05:21:03.559Z,21.70
2022-07-31T05:22:04.424Z,21.70
2022-07-31T05:23:06.714Z,21.73
2022-07-31T05:24:03.516Z,21.73
2022-07-31T05:25:04.147Z,21.76
2022-07-31T05:26:04.137Z,21.76
2022-07-31T05:27:04.131Z,21.78
2022-07-31T05:28:03.439Z,21.80
2022-07-31T05:29:04.440Z,21.80
2022-07-31T05:30:04.106Z,21.80
2022-07-31T05:31:04.098Z,21.81
2022-07-31T05:32:03.415Z,21.84
2022-07-31T05:33:04.071Z,21.86
2022-07-31T05:34:04.051Z,21.88
2022-07-31T05:35:04.815Z,21.91
2022-07-31T05:36:04.033Z,21.94
2022-07-31T05:37:03.409Z,21.97
2022-07-31T05:38:04.012Z,22.01
2022-07-31T05:39:04.312Z,22.04
2022-07-31T05:40:04.000Z,22.08
2022-07-31T05:41:04.035Z,22.11
2022-07-31T05:42:04.151Z,22.15
2022-07-31T05:43:03.955Z,22.18
2022-07-31T05:44:03.961Z,22.22
2022-07-31T05:45:05.304Z,22.28
2022-07-31T05:46:03.933Z,22.33
2022-07-31T05:47:40.323Z,22.37
2022-07-31T05:48:35.662Z,22.46
2022-07-31T05:49:37.096Z,22.52
2022-07-31T05:50:35.030Z,22.59
2022-07-31T05:51:35.648Z,22.68
2022-07-31T05:52:34.951Z,22.76
2022-07-31T05:53:34.932Z,22.84
2022-07-31T05:54:35.601Z,22.94
2022-07-31T05:55:34.928Z,23.03
2022-07-31T05:56:35.612Z,23.13
2022-07-31T05:57:35.600Z,23.24
2022-07-31T05:58:35.572Z,23.33
2022-07-31T05:59:34.989Z,23.41
2022-07-31T06:00:34.894Z,23.51
2022-07-31T06:01:35.590Z,23.60
2022-07-31T06:02:34.957Z,23.68
2022-07-31T06:03:51.503Z,23.77
2022-07-31T06:04:35.807Z,23.85
2022-07-31T06:05:35.486Z,23.95
2022-07-31T06:06:35.487Z,24.03
2022-07-31T06:07:35.460Z,24.11
2022-07-31T06:08:35.527Z,24.21
2022-07-31T06:09:35.437Z,24.31
2022-07-31T06:10:35.441Z,24.43
2022-07-31T06:11:35.495Z,24.55
2022-07-31T06:12:35.059Z,24.68
2022-07-31T06:13:35.388Z,24.79
2022-07-31T06:14:34.859Z,24.92
2022-07-31T06:15:36.760Z,25.07
2022-07-31T06:16:34.700Z,25.24
2022-07-31T06:17:44.067Z,25.43
2022-07-31T06:18:35.669Z,25.63
2022-07-31T06:19:35.348Z,25.90
2022-07-31T06:20:34.753Z,26.16
2022-07-31T06:21:34.640Z,26.46
2022-07-31T06:22:34.652Z,26.74
2022-07-31T06:23:35.292Z,27.07
2022-07-31T06:24:35.281Z,27.42
2022-07-31T06:25:39.052Z,27.54
2022-07-31T06:26:35.254Z,27.67
2022-07-31T06:27:35.045Z,27.99
2022-07-31T06:28:47.569Z,28.30
2022-07-31T06:29:40.800Z,28.41
2022-07-31T06:30:35.539Z,28.48
2022-07-31T06:31:35.194Z,28.45
2022-07-31T06:32:35.184Z,28.40
2022-07-31T06:33:37.683Z,28.33
2022-07-31T06:34:34.496Z,28.24
2022-07-31T06:35:35.157Z,28.17
2022-07-31T06:36:35.154Z,28.13
2022-07-31T06:37:34.506Z,28.11
2022-07-31T06:38:35.122Z,28.12
2022-07-31T06:39:55.766Z,28.16
2022-07-31T06:40:35.429Z,28.19
2022-07-31T06:41:35.102Z,28.30
2022-07-31T06:42:34.451Z,28.41
2022-07-31T06:43:35.086Z,28.42
2022-07-31T06:44:34.428Z,28.41
2022-07-31T06:45:50.669Z,28.38
2022-07-31T06:46:36.321Z,28.38
2022-07-31T06:47:34.393Z,28.48
2022-07-31T06:48:35.024Z,28.65
2022-07-31T06:49:35.087Z,28.63
2022-07-31T06:50:34.459Z,28.63
2022-07-31T06:51:34.320Z,28.64
2022-07-31T06:52:34.978Z,28.67
2022-07-31T06:53:34.357Z,28.66
2022-07-31T06:54:34.278Z,28.63
2022-07-31T06:55:34.332Z,28.57
2022-07-31T06:56:34.952Z,28.49
2022-07-31T06:57:34.930Z,28.40
2022-07-31T06:58:35.018Z,28.26
2022-07-31T06:59:40.213Z,28.12
2022-07-31T07:00:35.214Z,27.96
2022-07-31T07:01:34.239Z,27.81
2022-07-31T07:02:34.398Z,27.65
2022-07-31T07:03:34.209Z,27.51
2022-07-31T07:05:04.814Z,27.37
2022-07-31T07:05:35.166Z,27.23
2022-07-31T07:06:34.196Z,27.11
2022-07-31T07:07:34.141Z,27.00
2022-07-31T07:08:34.813Z,26.91
2022-07-31T07:09:34.825Z,26.85
2022-07-31T07:10:34.113Z,26.80
2022-07-31T07:11:34.980Z,26.73
2022-07-31T07:12:34.130Z,26.68
2022-07-31T07:13:45.299Z,26.63
2022-07-31T07:14:37.029Z,26.58
2022-07-31T07:15:34.032Z,26.56
2022-07-31T07:16:34.723Z,26.55
2022-07-31T07:17:34.710Z,26.55
2022-07-31T07:18:34.103Z,26.58
2022-07-31T07:19:34.001Z,26.63
2022-07-31T07:20:34.045Z,26.68
2022-07-31T07:21:34.665Z,26.74
2022-07-31T07:22:34.057Z,26.81
2022-07-31T07:23:34.656Z,26.89
2022-07-31T07:24:34.633Z,26.95
2022-07-31T07:25:35.925Z,27.01
2022-07-31T07:26:33.973Z,27.08
2022-07-31T07:27:34.613Z,27.14
2022-07-31T07:28:33.908Z,27.20
2022-07-31T07:29:34.575Z,27.25
2022-07-31T07:30:34.636Z,27.30
2022-07-31T07:31:33.873Z,27.35
2022-07-31T07:32:34.556Z,27.40
2022-07-31T07:33:40.999Z,27.46
2022-07-31T07:34:36.807Z,27.51
2022-07-31T07:35:34.515Z,27.55
2022-07-31T07:36:33.818Z,27.59
2022-07-31T07:37:39.211Z,27.61
2022-07-31T07:38:34.873Z,27.62
2022-07-31T07:39:34.499Z,27.65
2022-07-31T07:40:33.811Z,27.68
2022-07-31T07:41:33.767Z,27.69
2022-07-31T07:42:33.833Z,27.73
2022-07-31T07:43:33.748Z,27.79
2022-07-31T07:44:33.806Z,27.86
2022-07-31T07:45:33.758Z,27.93
2022-07-31T07:46:33.770Z,27.99
2022-07-31T07:47:53.701Z,28.04
2022-07-31T07:48:34.731Z,28.10
2022-07-31T07:49:34.473Z,28.16
2022-07-31T07:50:34.292Z,28.19
2022-07-31T07:51:34.787Z,28.24
2022-07-31T07:52:36.124Z,28.31
2022-07-31T07:53:33.854Z,28.41
2022-07-31T07:54:33.711Z,28.54
2022-07-31T07:55:37.384Z,28.70
2022-07-31T07:56:33.855Z,28.88
2022-07-31T07:57:35.337Z,29.08
2022-07-31T07:58:33.665Z,29.27
2022-07-31T07:59:33.646Z,29.49
2022-07-31T08:00:33.556Z,29.64
2022-07-31T08:01:34.438Z,29.74
2022-07-31T08:02:33.799Z,29.79
2022-07-31T08:03:48.651Z,29.84
2022-07-31T08:04:34.560Z,29.91
2022-07-31T08:05:33.588Z,29.95
2022-07-31T08:06:33.499Z,30.02
2022-07-31T08:07:42.099Z,30.09
2022-07-31T08:08:34.776Z,30.14
2022-07-31T08:09:34.253Z,30.18
2022-07-31T08:10:34.250Z,30.24
2022-07-31T08:11:33.521Z,30.29
2022-07-31T08:12:34.179Z,30.31
2022-07-31T08:13:33.526Z,30.29
2022-07-31T08:14:33.501Z,30.26
2022-07-31T08:15:33.480Z,30.20
2022-07-31T08:16:34.085Z,30.14
2022-07-31T08:17:34.071Z,30.10
2022-07-31T08:18:33.452Z,30.09
2022-07-31T08:19:33.674Z,30.13
2022-07-31T08:20:33.533Z,30.19
2022-07-31T08:21:33.523Z,30.28
2022-07-31T08:22:33.845Z,30.36
2022-07-31T08:23:33.831Z,30.43
2022-07-31T08:24:33.582Z,30.48
2022-07-31T08:25:33.644Z,30.49
2022-07-31T08:26:34.267Z,30.47
2022-07-31T08:27:38.045Z,30.44
2022-07-31T08:28:34.395Z,30.43
2022-07-31T08:29:37.129Z,30.52
2022-07-31T08:30:33.508Z,30.55
2022-07-31T08:31:35.098Z,30.53
2022-07-31T08:32:33.388Z,30.49
2022-07-31T08:33:33.348Z,30.43
2022-07-31T08:34:33.887Z,30.37
2022-07-31T08:35:33.890Z,30.29
2022-07-31T08:36:33.200Z,30.23
2022-07-31T08:37:52.440Z,30.17
2022-07-31T08:38:35.679Z,30.10
2022-07-31T08:39:33.899Z,30.05
2022-07-31T08:40:34.866Z,30.01
2022-07-31T08:41:34.355Z,29.98
2022-07-31T08:42:33.182Z,29.95
2022-07-31T08:44:00.047Z,29.91
2022-07-31T08:44:36.203Z,29.88
2022-07-31T08:45:36.336Z,29.86
2022-07-31T08:46:34.195Z,29.87
2022-07-31T08:47:34.153Z,29.86
2022-07-31T08:48:33.749Z,29.85
2022-07-31T08:49:33.185Z,29.86
2022-07-31T08:50:33.948Z,29.90
2022-07-31T08:51:33.025Z,29.91
2022-07-31T08:52:34.085Z,29.89
2022-07-31T08:53:33.687Z,29.87
2022-07-31T08:54:33.045Z,29.86
2022-07-31T08:55:55.212Z,29.88
2022-07-31T08:56:33.997Z,29.92
2022-07-31T08:57:33.318Z,30.00
2022-07-31T08:58:37.236Z,30.25
2022-07-31T08:59:33.957Z,30.44
2022-07-31T09:00:33.618Z,30.56
2022-07-31T09:01:33.513Z,30.72
2022-07-31T09:02:33.219Z,30.86
2022-07-31T09:03:33.603Z,31.01
2022-07-31T09:04:33.132Z,31.15
2022-07-31T09:05:41.772Z,31.30
2022-07-31T09:06:36.000Z,31.45
2022-07-31T09:07:33.542Z,31.58
2022-07-31T09:08:33.534Z,31.71
2022-07-31T09:09:50.306Z,31.85
2022-07-31T09:10:33.841Z,32.01
2022-07-31T09:11:32.831Z,32.25
2022-07-31T09:12:35.170Z,32.51
2022-07-31T09:13:33.486Z,32.69
2022-07-31T09:14:33.464Z,32.82
2022-07-31T09:15:33.458Z,32.95
2022-07-31T09:16:33.064Z,33.30
2022-07-31T09:17:33.484Z,33.85
2022-07-31T09:18:33.704Z,34.44
2022-07-31T09:19:52.755Z,34.79
2022-07-31T09:20:33.803Z,34.97
2022-07-31T09:21:32.775Z,35.08
2022-07-31T09:22:32.889Z,35.12
2022-07-31T09:23:33.399Z,35.12
2022-07-31T09:24:36.919Z,35.16
2022-07-31T09:25:34.358Z,35.55
2022-07-31T09:26:33.039Z,35.77
2022-07-31T09:27:32.728Z,35.86
2022-07-31T09:28:32.692Z,36.11
2022-07-31T09:29:32.837Z,36.39
2022-07-31T09:30:32.939Z,36.76
2022-07-31T09:31:32.668Z,37.18
2022-07-31T09:32:32.639Z,37.55
2022-07-31T09:33:32.673Z,37.62
2022-07-31T09:34:32.665Z,37.54
2022-07-31T09:35:32.571Z,37.37
2022-07-31T09:36:32.811Z,37.16
2022-07-31T09:37:32.562Z,36.92
2022-07-31T09:38:32.674Z,36.66
2022-07-31T09:39:32.546Z,36.42
2022-07-31T09:40:32.649Z,36.21
2022-07-31T09:41:58.006Z,36.06
2022-07-31T09:42:33.704Z,35.93
2022-07-31T09:43:33.273Z,35.77
2022-07-31T09:44:33.576Z,35.64
2022-07-31T09:45:32.496Z,35.52
2022-07-31T09:46:32.489Z,35.41
2022-07-31T09:47:32.512Z,35.28
2022-07-31T09:48:32.510Z,35.12
2022-07-31T09:49:32.521Z,34.98
2022-07-31T09:50:32.419Z,34.81
2022-07-31T09:51:32.721Z,34.61
2022-07-31T09:52:32.498Z,34.41
2022-07-31T09:53:32.440Z,34.21
2022-07-31T09:54:33.039Z,34.01
2022-07-31T09:55:32.556Z,33.80
2022-07-31T09:56:32.388Z,33.58
2022-07-31T09:57:32.384Z,33.38
2022-07-31T09:58:32.462Z,33.18
2022-07-31T09:59:33.061Z,33.01
2022-07-31T10:00:33.093Z,32.87
2022-07-31T10:01:32.424Z,32.77
2022-07-31T10:02:32.374Z,32.67
2022-07-31T10:03:32.964Z,32.61
2022-07-31T10:04:32.321Z,32.58
2022-07-31T10:05:33.015Z,32.56
2022-07-31T10:06:32.523Z,32.51
2022-07-31T10:07:33.039Z,32.48
2022-07-31T10:08:32.904Z,32.47
2022-07-31T10:09:32.303Z,32.46
2022-07-31T10:10:32.319Z,32.46
2022-07-31T10:11:32.266Z,32.43
2022-07-31T10:12:32.588Z,32.41
2022-07-31T10:13:32.857Z,32.39
2022-07-31T10:14:32.215Z,32.41
2022-07-31T10:15:32.483Z,32.44
2022-07-31T10:16:32.841Z,32.47
2022-07-31T10:17:35.940Z,32.53
2022-07-31T10:18:36.024Z,32.59
2022-07-31T10:19:32.130Z,32.63
2022-07-31T10:20:32.804Z,32.67
2022-07-31T10:21:32.191Z,32.69
2022-07-31T10:22:32.090Z,32.67
2022-07-31T10:23:32.132Z,32.63
2022-07-31T10:24:32.138Z,32.57
2022-07-31T10:25:32.128Z,32.49
2022-07-31T10:26:57.696Z,32.39
2022-07-31T10:27:33.088Z,32.29
2022-07-31T10:28:35.061Z,32.19
2022-07-31T10:29:33.273Z,32.14
2022-07-31T10:30:32.141Z,32.13
2022-07-31T10:31:32.364Z,32.13
2022-07-31T10:32:32.071Z,32.17
2022-07-31T10:33:47.991Z,32.25
2022-07-31T10:34:32.965Z,32.34
2022-07-31T10:35:32.624Z,32.45
2022-07-31T10:36:32.016Z,32.53
2022-07-31T10:37:31.968Z,32.53
2022-07-31T10:38:35.403Z,32.51
2022-07-31T10:39:35.808Z,32.53
2022-07-31T10:40:32.568Z,32.59
2022-07-31T10:41:31.909Z,32.70
2022-07-31T10:42:32.557Z,32.79
2022-07-31T10:43:32.566Z,32.96
2022-07-31T10:44:35.517Z,33.83
2022-07-31T10:45:32.907Z,33.93
2022-07-31T10:46:31.834Z,34.25
2022-07-31T10:47:31.875Z,34.59
2022-07-31T10:48:32.149Z,34.85
2022-07-31T10:49:31.919Z,35.59
2022-07-31T10:50:32.090Z,36.05
2022-07-31T10:51:31.821Z,36.01
2022-07-31T10:52:31.866Z,35.75
2022-07-31T10:53:50.310Z,35.37
2022-07-31T10:54:32.864Z,35.10
2022-07-31T10:55:32.422Z,34.87
2022-07-31T10:56:31.753Z,34.64
2022-07-31T10:57:32.055Z,34.40
2022-07-31T10:58:31.843Z,34.14
2022-07-31T10:59:31.827Z,33.87
2022-07-31T11:00:31.856Z,33.61
2022-07-31T11:01:31.771Z,33.35
2022-07-31T11:02:32.347Z,33.10
2022-07-31T11:03:32.034Z,32.84
2022-07-31T11:04:32.324Z,32.57
2022-07-31T11:05:32.285Z,32.33
2022-07-31T11:06:34.794Z,32.07
2022-07-31T11:07:31.776Z,31.82
2022-07-31T11:08:31.917Z,31.56
2022-07-31T11:09:31.639Z,31.33
2022-07-31T11:10:31.822Z,31.11
2022-07-31T11:11:31.627Z,30.91
2022-07-31T11:12:31.619Z,30.72
2022-07-31T11:13:33.583Z,30.56
2022-07-31T11:14:33.462Z,30.42
2022-07-31T11:15:31.955Z,30.32
2022-07-31T11:16:31.636Z,30.25
2022-07-31T11:18:21.206Z,30.19
2022-07-31T11:18:34.669Z,30.17
2022-07-31T11:19:32.366Z,30.17
2022-07-31T11:20:32.502Z,30.19
2022-07-31T11:21:38.503Z,30.21
2022-07-31T11:22:33.274Z,30.24
2022-07-31T11:23:31.503Z,30.29
2022-07-31T11:24:31.527Z,30.36
2022-07-31T11:25:33.344Z,30.44
2022-07-31T11:26:33.195Z,30.53
2022-07-31T11:27:32.584Z,30.62
2022-07-31T11:28:31.505Z,30.71
2022-07-31T11:29:58.786Z,30.81
2022-07-31T11:30:32.597Z,30.92
2022-07-31T11:31:31.399Z,31.03
2022-07-31T11:32:31.405Z,31.14
2022-07-31T11:33:38.925Z,31.20
2022-07-31T11:34:33.878Z,31.24
2022-07-31T11:35:32.307Z,31.25
2022-07-31T11:36:31.382Z,31.24
2022-07-31T11:37:43.329Z,31.22
2022-07-31T11:38:34.250Z,31.17
2022-07-31T11:39:37.037Z,31.10
2022-07-31T11:40:33.175Z,31.02
2022-07-31T11:41:38.262Z,30.93
2022-07-31T11:42:36.084Z,30.83
2022-07-31T11:43:31.241Z,30.76
2022-07-31T11:44:31.263Z,30.73
2022-07-31T11:45:33.491Z,30.72
2022-07-31T11:46:31.333Z,30.73
2022-07-31T11:48:09.485Z,30.70
2022-07-31T11:48:38.114Z,30.69
2022-07-31T11:49:47.723Z,30.70
2022-07-31T11:50:33.614Z,30.71
2022-07-31T11:51:31.153Z,30.74
2022-07-31T11:52:37.079Z,30.78
2022-07-31T11:53:32.802Z,30.82
2022-07-31T11:54:31.125Z,30.87
2022-07-31T11:55:31.234Z,30.92
2022-07-31T11:56:31.066Z,30.93
2022-07-31T11:57:51.259Z,30.95
2022-07-31T11:58:32.289Z,30.97
2022-07-31T11:59:46.149Z,30.96
2022-07-31T12:00:32.736Z,30.93
2022-07-31T12:01:31.731Z,30.91
2022-07-31T12:02:31.771Z,30.89
2022-07-31T12:03:31.278Z,30.90
2022-07-31T12:04:31.082Z,30.95
2022-07-31T12:05:37.861Z,31.02
2022-07-31T12:06:34.830Z,31.10
2022-07-31T12:07:31.660Z,31.15
2022-07-31T12:08:31.150Z,31.21
2022-07-31T12:10:02.855Z,31.23
2022-07-31T12:10:32.001Z,31.24
2022-07-31T12:11:31.642Z,31.23
2022-07-31T12:12:30.942Z,31.22
2022-07-31T12:13:30.923Z,31.18
2022-07-31T12:14:30.912Z,31.12
2022-07-31T12:15:30.913Z,31.06
2022-07-31T12:16:30.901Z,31.00
2022-07-31T12:17:30.881Z,30.92
2022-07-31T12:18:30.913Z,30.83
2022-07-31T12:19:30.924Z,30.78
2022-07-31T12:20:36.523Z,30.73
2022-07-31T12:21:31.955Z,30.69
2022-07-31T12:22:30.961Z,30.63
2022-07-31T12:23:40.620Z,30.56
2022-07-31T12:24:33.766Z,30.47
2022-07-31T12:25:30.820Z,30.38
2022-07-31T12:26:30.862Z,30.32
2022-07-31T12:27:31.451Z,30.31
2022-07-31T12:28:30.806Z,30.36
2022-07-31T12:29:31.430Z,30.37
2022-07-31T12:30:30.797Z,30.34
2022-07-31T12:31:30.740Z,30.30
2022-07-31T12:32:31.413Z,30.28
2022-07-31T12:33:30.853Z,30.22
2022-07-31T12:34:31.377Z,30.15
2022-07-31T12:35:37.193Z,30.05
2022-07-31T12:36:31.773Z,29.89
2022-07-31T12:37:30.730Z,29.73
2022-07-31T12:38:44.859Z,29.59
2022-07-31T12:39:54.413Z,29.49
2022-07-31T12:40:31.640Z,29.43
2022-07-31T12:41:30.641Z,29.40
2022-07-31T12:42:33.300Z,29.38
2022-07-31T12:43:31.317Z,29.38
2022-07-31T12:44:31.323Z,29.38
2022-07-31T12:45:30.642Z,29.42
2022-07-31T12:46:30.594Z,29.45
2022-07-31T12:47:30.653Z,29.49
2022-07-31T12:48:33.754Z,29.56
2022-07-31T12:49:31.664Z,29.62
2022-07-31T12:50:30.567Z,29.65
2022-07-31T12:51:44.618Z,29.67
2022-07-31T12:52:32.228Z,29.72